sensor_id;sensor_type;location;lat;lon;timestamp;pressure;altitude;pressure_sealevel;temperature;humidity
76660;BME280;65579;45.534;6.212;2023-08-21T00:00:46;98668.43;;;25.30;39.30
76660;BME280;65579;45.534;6.212;2023-08-21T00:03:12;98664.85;;;26.68;37.07
76660;BME280;65579;45.534;6.212;2023-08-21T00:05:38;98657.61;;;26.91;36.41
76660;BME280;65579;45.534;6.212;2023-08-21T00:08:03;98657.26;;;27.44;35.94
76660;BME280;65579;45.534;6.212;2023-08-21T00:10:30;98654.45;;;27.61;35.32
76660;BME280;65579;45.534;6.212;2023-08-21T00:12:54;98651.59;;;27.83;34.99
76660;BME280;65579;45.534;6.212;2023-08-21T00:15:20;98654.47;;;27.51;35.22
76660;BME280;65579;45.534;6.212;2023-08-21T00:17:45;98655.67;;;27.60;35.04
76660;BME280;65579;45.534;6.212;2023-08-21T00:20:11;98658.11;;;25.33;39.72
76660;BME280;65579;45.534;6.212;2023-08-21T00:22:36;98659.73;;;26.45;37.46
76660;BME280;65579;45.534;6.212;2023-08-21T00:25:02;98656.79;;;27.12;36.58
76660;BME280;65579;45.534;6.212;2023-08-21T00:27:27;98663.05;;;26.80;36.67
76660;BME280;65579;45.534;6.212;2023-08-21T00:29:53;98659.50;;;27.06;36.13
76660;BME280;65579;45.534;6.212;2023-08-21T00:32:19;98659.71;;;27.20;35.62
76660;BME280;65579;45.534;6.212;2023-08-21T00:34:45;98661.42;;;26.58;36.67
76660;BME280;65579;45.534;6.212;2023-08-21T00:37:10;98661.78;;;27.05;36.54
76660;BME280;65579;45.534;6.212;2023-08-21T00:39:35;98659.47;;;27.48;35.62
76660;BME280;65579;45.534;6.212;2023-08-21T00:42:00;98654.13;;;26.88;36.17
76660;BME280;65579;45.534;6.212;2023-08-21T00:44:26;98662.50;;;25.81;38.98
76660;BME280;65579;45.534;6.212;2023-08-21T00:46:51;98656.12;;;25.14;39.57
76660;BME280;65579;45.534;6.212;2023-08-21T00:49:17;98659.70;;;24.61;41.38
76660;BME280;65579;45.534;6.212;2023-08-21T00:51:42;98649.70;;;24.66;40.85
76660;BME280;65579;45.534;6.212;2023-08-21T00:54:08;98655.58;;;22.81;44.55
76660;BME280;65579;45.534;6.212;2023-08-21T00:56:33;98666.58;;;20.42;50.34
76660;BME280;65579;45.534;6.212;2023-08-21T00:58:59;98661.77;;;23.16;44.69
76660;BME280;65579;45.534;6.212;2023-08-21T01:01:25;98665.99;;;24.49;41.56
76660;BME280;65579;45.534;6.212;2023-08-21T01:03:50;98657.23;;;24.08;41.70
76660;BME280;65579;45.534;6.212;2023-08-21T01:06:16;98654.58;;;23.12;44.29
76660;BME280;65579;45.534;6.212;2023-08-21T01:08:49;98655.03;;;24.95;41.13
76660;BME280;65579;45.534;6.212;2023-08-21T01:11:13;98659.98;;;23.37;42.82
76660;BME280;65579;45.534;6.212;2023-08-21T01:13:43;98661.53;;;24.58;41.42
76660;BME280;65579;45.534;6.212;2023-08-21T01:15:59;98666.02;;;25.81;38.78
76660;BME280;65579;45.534;6.212;2023-08-21T01:18:26;98662.74;;;26.43;38.14
76660;BME280;65579;45.534;6.212;2023-08-21T01:20:51;98659.59;;;26.80;37.41
76660;BME280;65579;45.534;6.212;2023-08-21T01:23:28;98668.60;;;26.21;37.24
76660;BME280;65579;45.534;6.212;2023-08-21T01:25:43;98662.53;;;24.78;40.13
76660;BME280;65579;45.534;6.212;2023-08-21T01:28:08;98666.90;;;22.29;45.27
76660;BME280;65579;45.534;6.212;2023-08-21T01:30:35;98669.25;;;23.93;42.94
76660;BME280;65579;45.534;6.212;2023-08-21T01:33:01;98667.50;;;23.06;44.26
76660;BME280;65579;45.534;6.212;2023-08-21T01:35:26;98671.14;;;23.37;43.56
76660;BME280;65579;45.534;6.212;2023-08-21T01:37:51;98672.44;;;24.74;41.09
76660;BME280;65579;45.534;6.212;2023-08-21T01:40:21;98669.69;;;24.32;41.79
76660;BME280;65579;45.534;6.212;2023-08-21T01:42:41;98671.36;;;23.02;44.25
76660;BME280;65579;45.534;6.212;2023-08-21T01:45:08;98672.15;;;22.81;45.66
76660;BME280;65579;45.534;6.212;2023-08-21T01:47:32;98675.01;;;24.27;42.35
76660;BME280;65579;45.534;6.212;2023-08-21T01:49:58;98676.14;;;25.37;39.94
76660;BME280;65579;45.534;6.212;2023-08-21T01:52:24;98674.09;;;25.27;40.23
76660;BME280;65579;45.534;6.212;2023-08-21T01:54:51;98676.56;;;25.76;39.20
76660;BME280;65579;45.534;6.212;2023-08-21T01:57:15;98677.52;;;25.96;38.59
76660;BME280;65579;45.534;6.212;2023-08-21T01:59:41;98675.73;;;24.88;40.37
76660;BME280;65579;45.534;6.212;2023-08-21T02:02:07;98683.03;;;25.23;38.99
76660;BME280;65579;45.534;6.212;2023-08-21T02:04:33;98687.11;;;24.62;40.80
76660;BME280;65579;45.534;6.212;2023-08-21T02:06:58;98687.18;;;24.83;40.74
76660;BME280;65579;45.534;6.212;2023-08-21T02:09:28;98686.59;;;24.46;41.73
76660;BME280;65579;45.534;6.212;2023-08-21T02:11:49;98683.24;;;25.54;40.05
76660;BME280;65579;45.534;6.212;2023-08-21T02:14:15;98677.11;;;24.64;40.50
76660;BME280;65579;45.534;6.212;2023-08-21T02:16:41;98685.84;;;23.44;43.17
76660;BME280;65579;45.534;6.212;2023-08-21T02:19:06;98688.23;;;21.10;46.86
76660;BME280;65579;45.534;6.212;2023-08-21T02:21:34;98687.66;;;24.35;42.02
76660;BME280;65579;45.534;6.212;2023-08-21T02:23:57;98689.97;;;25.42;40.19
76660;BME280;65579;45.534;6.212;2023-08-21T02:26:23;98690.25;;;24.92;40.51
76660;BME280;65579;45.534;6.212;2023-08-21T02:28:48;98688.20;;;25.06;39.95
76660;BME280;65579;45.534;6.212;2023-08-21T02:31:14;98685.30;;;24.82;39.88
76660;BME280;65579;45.534;6.212;2023-08-21T02:33:40;98688.92;;;23.92;41.62
76660;BME280;65579;45.534;6.212;2023-08-21T02:36:06;98687.77;;;23.87;42.38
76660;BME280;65579;45.534;6.212;2023-08-21T02:38:31;98685.62;;;25.17;39.26
76660;BME280;65579;45.534;6.212;2023-08-21T02:40:58;98680.17;;;24.69;40.62
76660;BME280;65579;45.534;6.212;2023-08-21T02:43:23;98683.91;;;23.10;43.49
76660;BME280;65579;45.534;6.212;2023-08-21T02:45:49;98686.74;;;23.98;42.26
76660;BME280;65579;45.534;6.212;2023-08-21T02:48:15;98687.59;;;23.68;42.71
76660;BME280;65579;45.534;6.212;2023-08-21T02:50:40;98694.12;;;23.24;44.52
76660;BME280;65579;45.534;6.212;2023-08-21T02:53:06;98694.22;;;23.89;42.54
76660;BME280;65579;45.534;6.212;2023-08-21T02:55:32;98694.66;;;24.26;41.47
76660;BME280;65579;45.534;6.212;2023-08-21T02:57:58;98694.14;;;24.61;41.05
76660;BME280;65579;45.534;6.212;2023-08-21T03:00:23;98692.79;;;24.78;40.50
76660;BME280;65579;45.534;6.212;2023-08-21T03:02:49;98693.89;;;24.91;40.35
76660;BME280;65579;45.534;6.212;2023-08-21T03:05:14;98688.53;;;25.16;39.86
76660;BME280;65579;45.534;6.212;2023-08-21T03:07:40;98689.91;;;24.16;41.65
76660;BME280;65579;45.534;6.212;2023-08-21T03:10:07;98694.57;;;22.78;44.31
76660;BME280;65579;45.534;6.212;2023-08-21T03:12:31;98705.75;;;21.14;46.88
76660;BME280;65579;45.534;6.212;2023-08-21T03:14:57;98697.15;;;22.53;45.30
76660;BME280;65579;45.534;6.212;2023-08-21T03:17:23;98695.97;;;22.93;43.73
76660;BME280;65579;45.534;6.212;2023-08-21T03:19:48;98689.52;;;22.52;44.67
76660;BME280;65579;45.534;6.212;2023-08-21T03:22:14;98696.99;;;21.93;46.17
76660;BME280;65579;45.534;6.212;2023-08-21T03:24:39;98701.54;;;23.52;42.09
76660;BME280;65579;45.534;6.212;2023-08-21T03:27:05;98700.58;;;22.78;44.33
76660;BME280;65579;45.534;6.212;2023-08-21T03:29:30;98697.01;;;24.34;41.10
76660;BME280;65579;45.534;6.212;2023-08-21T03:31:57;98692.39;;;24.74;40.44
76660;BME280;65579;45.534;6.212;2023-08-21T03:34:21;98692.18;;;22.29;44.65
76660;BME280;65579;45.534;6.212;2023-08-21T03:36:47;98706.09;;;19.23;51.42
76660;BME280;65579;45.534;6.212;2023-08-21T03:39:15;98705.47;;;20.32;50.38
76660;BME280;65579;45.534;6.212;2023-08-21T03:41:41;98707.59;;;21.22;48.27
76660;BME280;65579;45.534;6.212;2023-08-21T03:44:03;98708.27;;;22.38;45.60
76660;BME280;65579;45.534;6.212;2023-08-21T03:46:29;98711.12;;;23.76;42.53
76660;BME280;65579;45.534;6.212;2023-08-21T03:48:54;98713.60;;;23.56;42.75
76660;BME280;65579;45.534;6.212;2023-08-21T03:51:20;98716.56;;;24.19;41.41
76660;BME280;65579;45.534;6.212;2023-08-21T03:53:45;98716.07;;;24.38;40.81
76660;BME280;65579;45.534;6.212;2023-08-21T03:56:11;98719.54;;;24.83;40.50
76660;BME280;65579;45.534;6.212;2023-08-21T03:58:37;98718.63;;;25.32;39.34
76660;BME280;65579;45.534;6.212;2023-08-21T04:01:03;98717.05;;;25.73;38.66
76660;BME280;65579;45.534;6.212;2023-08-21T04:03:28;98722.51;;;24.13;40.61
76660;BME280;65579;45.534;6.212;2023-08-21T04:05:54;98722.67;;;24.08;40.77
76660;BME280;65579;45.534;6.212;2023-08-21T04:08:20;98725.50;;;21.89;44.82
76660;BME280;65579;45.534;6.212;2023-08-21T04:10:45;98727.50;;;21.42;45.69
76660;BME280;65579;45.534;6.212;2023-08-21T04:13:11;98725.58;;;23.65;42.64
76660;BME280;65579;45.534;6.212;2023-08-21T04:15:37;98722.27;;;23.45;42.88
76660;BME280;65579;45.534;6.212;2023-08-21T04:18:02;98725.14;;;23.84;41.70
76660;BME280;65579;45.534;6.212;2023-08-21T04:20:27;98736.68;;;21.10;48.07
76660;BME280;65579;45.534;6.212;2023-08-21T04:22:53;98743.09;;;19.68;52.59
76660;BME280;65579;45.534;6.212;2023-08-21T04:25:19;98747.80;;;18.95;54.21
76660;BME280;65579;45.534;6.212;2023-08-21T04:27:44;98750.94;;;18.72;55.58
76660;BME280;65579;45.534;6.212;2023-08-21T04:30:11;98750.98;;;18.97;54.49
76660;BME280;65579;45.534;6.212;2023-08-21T04:32:35;98750.81;;;19.83;52.62
76660;BME280;65579;45.534;6.212;2023-08-21T04:35:01;98749.34;;;22.47;46.37
76660;BME280;65579;45.534;6.212;2023-08-21T04:37:26;98750.07;;;22.27;44.89
76660;BME280;65579;45.534;6.212;2023-08-21T04:39:51;98755.18;;;22.95;44.25
76660;BME280;65579;45.534;6.212;2023-08-21T04:42:16;98752.50;;;23.72;41.85
76660;BME280;65579;45.534;6.212;2023-08-21T04:44:42;98750.75;;;23.82;42.13
76660;BME280;65579;45.534;6.212;2023-08-21T04:47:19;98758.85;;;22.17;44.25
76660;BME280;65579;45.534;6.212;2023-08-21T04:49:33;98760.60;;;23.23;42.10
76660;BME280;65579;45.534;6.212;2023-08-21T04:51:59;98769.64;;;22.33;44.81
76660;BME280;65579;45.534;6.212;2023-08-21T04:54:25;98767.33;;;23.80;41.57
76660;BME280;65579;45.534;6.212;2023-08-21T04:56:50;98771.92;;;24.23;40.80
76660;BME280;65579;45.534;6.212;2023-08-21T04:59:16;98776.03;;;23.72;41.97
76660;BME280;65579;45.534;6.212;2023-08-21T05:01:41;98777.38;;;24.61;40.21
76660;BME280;65579;45.534;6.212;2023-08-21T05:04:06;98779.39;;;24.51;40.21
76660;BME280;65579;45.534;6.212;2023-08-21T05:06:32;98785.89;;;24.86;39.72
76660;BME280;65579;45.534;6.212;2023-08-21T05:08:57;98784.46;;;25.17;39.33
76660;BME280;65579;45.534;6.212;2023-08-21T05:11:23;98788.40;;;24.97;39.12
76660;BME280;65579;45.534;6.212;2023-08-21T05:13:48;98788.15;;;25.45;38.64
76660;BME280;65579;45.534;6.212;2023-08-21T05:16:14;98789.33;;;25.23;38.66
76660;BME280;65579;45.534;6.212;2023-08-21T05:18:39;98794.40;;;24.84;39.98
76660;BME280;65579;45.534;6.212;2023-08-21T05:21:05;98795.19;;;25.24;38.85
76660;BME280;65579;45.534;6.212;2023-08-21T05:23:31;98795.21;;;25.77;38.49
76660;BME280;65579;45.534;6.212;2023-08-21T05:25:57;98796.98;;;25.46;38.82
76660;BME280;65579;45.534;6.212;2023-08-21T05:28:22;98799.87;;;24.24;41.07
76660;BME280;65579;45.534;6.212;2023-08-21T05:30:48;98801.34;;;24.61;40.58
76660;BME280;65579;45.534;6.212;2023-08-21T05:33:13;98800.94;;;24.10;41.29
76660;BME280;65579;45.534;6.212;2023-08-21T05:35:40;98802.87;;;22.93;42.98
76660;BME280;65579;45.534;6.212;2023-08-21T05:38:06;98804.05;;;24.88;40.04
76660;BME280;65579;45.534;6.212;2023-08-21T05:40:30;98805.47;;;24.36;40.99
76660;BME280;65579;45.534;6.212;2023-08-21T05:42:56;98806.87;;;23.82;41.50
76660;BME280;65579;45.534;6.212;2023-08-21T05:45:22;98810.35;;;23.60;42.41
76660;BME280;65579;45.534;6.212;2023-08-21T05:47:47;98809.37;;;24.29;41.03
76660;BME280;65579;45.534;6.212;2023-08-21T05:50:13;98813.05;;;25.09;39.86
76660;BME280;65579;45.534;6.212;2023-08-21T05:52:38;98814.12;;;25.07;40.02
76660;BME280;65579;45.534;6.212;2023-08-21T05:55:06;98812.84;;;25.52;39.39
76660;BME280;65579;45.534;6.212;2023-08-21T05:57:30;98820.79;;;22.67;43.69
76660;BME280;65579;45.534;6.212;2023-08-21T05:59:55;98816.21;;;23.79;41.61
76660;BME280;65579;45.534;6.212;2023-08-21T06:02:21;98821.73;;;21.38;46.21
76660;BME280;65579;45.534;6.212;2023-08-21T06:04:46;98821.42;;;20.82;47.43
76660;BME280;65579;45.534;6.212;2023-08-21T06:07:12;98818.44;;;23.65;42.86
76660;BME280;65579;45.534;6.212;2023-08-21T06:09:37;98821.89;;;24.80;40.66
76660;BME280;65579;45.534;6.212;2023-08-21T06:12:03;98818.90;;;25.33;39.46
76660;BME280;65579;45.534;6.212;2023-08-21T06:14:28;98821.68;;;25.33;38.71
76660;BME280;65579;45.534;6.212;2023-08-21T06:16:54;98823.11;;;25.45;39.03
76660;BME280;65579;45.534;6.212;2023-08-21T06:19:20;98824.10;;;25.33;38.73
76660;BME280;65579;45.534;6.212;2023-08-21T06:21:45;98827.61;;;23.72;42.45
76660;BME280;65579;45.534;6.212;2023-08-21T06:24:11;98831.04;;;23.69;42.54
76660;BME280;65579;45.534;6.212;2023-08-21T06:26:36;98832.27;;;24.30;41.26
76660;BME280;65579;45.534;6.212;2023-08-21T06:29:02;98833.56;;;24.16;41.09
76660;BME280;65579;45.534;6.212;2023-08-21T06:31:28;98833.48;;;25.22;39.94
76660;BME280;65579;45.534;6.212;2023-08-21T06:33:54;98831.72;;;25.46;39.34
76660;BME280;65579;45.534;6.212;2023-08-21T06:36:20;98837.30;;;26.22;38.16
76660;BME280;65579;45.534;6.212;2023-08-21T06:38:45;98838.79;;;25.80;37.75
76660;BME280;65579;45.534;6.212;2023-08-21T06:41:10;98837.80;;;25.47;38.28
76660;BME280;65579;45.534;6.212;2023-08-21T06:43:36;98836.15;;;26.03;37.98
76660;BME280;65579;45.534;6.212;2023-08-21T06:46:02;98833.04;;;26.57;37.33
76660;BME280;65579;45.534;6.212;2023-08-21T06:48:27;98831.86;;;25.39;38.96
76660;BME280;65579;45.534;6.212;2023-08-21T06:50:53;98836.09;;;24.76;40.37
76660;BME280;65579;45.534;6.212;2023-08-21T06:53:18;98835.68;;;25.37;39.07
76660;BME280;65579;45.534;6.212;2023-08-21T06:55:45;98836.77;;;26.28;36.64
76660;BME280;65579;45.534;6.212;2023-08-21T06:58:10;98841.25;;;27.22;35.81
76660;BME280;65579;45.534;6.212;2023-08-21T07:00:35;98840.05;;;27.45;35.74
76660;BME280;65579;45.534;6.212;2023-08-21T07:03:01;98840.33;;;27.13;36.14
76660;BME280;65579;45.534;6.212;2023-08-21T07:05:26;98838.30;;;27.87;34.36
76660;BME280;65579;45.534;6.212;2023-08-21T07:07:52;98830.11;;;28.50;33.71
76660;BME280;65579;45.534;6.212;2023-08-21T07:10:17;98831.37;;;27.40;34.28
76660;BME280;65579;45.534;6.212;2023-08-21T07:12:43;98827.70;;;28.52;33.15
76660;BME280;65579;45.534;6.212;2023-08-21T07:15:09;98826.90;;;28.50;32.71
76660;BME280;65579;45.534;6.212;2023-08-21T07:17:34;98828.12;;;28.86;32.70
76660;BME280;65579;45.534;6.212;2023-08-21T07:19:59;98826.93;;;28.97;32.74
76660;BME280;65579;45.534;6.212;2023-08-21T07:22:25;98830.95;;;27.91;33.56
76660;BME280;65579;45.534;6.212;2023-08-21T07:24:51;98825.50;;;28.24;33.43
76660;BME280;65579;45.534;6.212;2023-08-21T07:27:17;98827.21;;;28.69;32.23
76660;BME280;65579;45.534;6.212;2023-08-21T07:29:42;98823.19;;;29.27;30.76
76660;BME280;65579;45.534;6.212;2023-08-21T07:32:08;98820.06;;;29.35;29.77
76660;BME280;65579;45.534;6.212;2023-08-21T07:34:33;98818.21;;;29.98;29.40
76660;BME280;65579;45.534;6.212;2023-08-21T07:36:59;98814.70;;;29.81;29.46
76660;BME280;65579;45.534;6.212;2023-08-21T07:39:25;98816.68;;;29.31;30.19
76660;BME280;65579;45.534;6.212;2023-08-21T07:41:50;98816.17;;;29.14;29.67
76660;BME280;65579;45.534;6.212;2023-08-21T07:44:16;98811.70;;;30.01;28.85
76660;BME280;65579;45.534;6.212;2023-08-21T07:46:41;98813.90;;;29.49;28.99
76660;BME280;65579;45.534;6.212;2023-08-21T07:49:07;98816.49;;;28.79;28.87
76660;BME280;65579;45.534;6.212;2023-08-21T07:51:32;98816.59;;;29.05;29.62
76660;BME280;65579;45.534;6.212;2023-08-21T07:53:58;98812.78;;;29.52;29.73
76660;BME280;65579;45.534;6.212;2023-08-21T07:56:24;98814.77;;;28.72;29.75
76660;BME280;65579;45.534;6.212;2023-08-21T07:58:50;98813.19;;;28.88;28.52
76660;BME280;65579;45.534;6.212;2023-08-21T08:01:15;98811.68;;;29.15;28.51
76660;BME280;65579;45.534;6.212;2023-08-21T08:03:40;98808.14;;;28.91;29.35
76660;BME280;65579;45.534;6.212;2023-08-21T08:06:06;98814.73;;;26.15;32.39
76660;BME280;65579;45.534;6.212;2023-08-21T08:08:30;98812.09;;;25.99;33.93
76660;BME280;65579;45.534;6.212;2023-08-21T08:10:59;98807.07;;;25.98;35.22
76660;BME280;65579;45.534;6.212;2023-08-21T08:13:21;98807.74;;;25.03;37.24
76660;BME280;65579;45.534;6.212;2023-08-21T08:15:46;98807.81;;;25.66;36.33
76660;BME280;65579;45.534;6.212;2023-08-21T08:18:12;98808.02;;;25.91;35.19
76660;BME280;65579;45.534;6.212;2023-08-21T08:20:37;98806.16;;;26.97;33.24
76660;BME280;65579;45.534;6.212;2023-08-21T08:23:03;98800.87;;;28.80;31.05
76660;BME280;65579;45.534;6.212;2023-08-21T08:25:29;98799.90;;;26.29;34.44
76660;BME280;65579;45.534;6.212;2023-08-21T08:27:54;98795.25;;;26.71;34.06
76660;BME280;65579;45.534;6.212;2023-08-21T08:30:19;98791.19;;;25.64;35.59
76660;BME280;65579;45.534;6.212;2023-08-21T08:32:44;98791.80;;;25.98;35.15
76660;BME280;65579;45.534;6.212;2023-08-21T08:35:10;98784.71;;;27.55;32.06
76660;BME280;65579;45.534;6.212;2023-08-21T08:37:36;98784.41;;;28.49;30.21
76660;BME280;65579;45.534;6.212;2023-08-21T08:40:01;98785.03;;;28.62;29.99
76660;BME280;65579;45.534;6.212;2023-08-21T08:42:26;98781.41;;;28.60;29.58
76660;BME280;65579;45.534;6.212;2023-08-21T08:44:55;98777.50;;;27.63;30.34
76660;BME280;65579;45.534;6.212;2023-08-21T08:47:17;98776.27;;;28.52;30.31
76660;BME280;65579;45.534;6.212;2023-08-21T08:49:42;98772.76;;;28.35;29.66
76660;BME280;65579;45.534;6.212;2023-08-21T08:52:08;98771.83;;;28.48;30.40
76660;BME280;65579;45.534;6.212;2023-08-21T08:54:33;98765.76;;;29.14;29.44
76660;BME280;65579;45.534;6.212;2023-08-21T08:56:58;98760.11;;;29.85;29.04
76660;BME280;65579;45.534;6.212;2023-08-21T08:59:24;98757.82;;;29.12;29.29
76660;BME280;65579;45.534;6.212;2023-08-21T09:01:50;98756.51;;;29.93;28.30
76660;BME280;65579;45.534;6.212;2023-08-21T09:04:15;98755.10;;;29.42;28.40
76660;BME280;65579;45.534;6.212;2023-08-21T09:06:41;98751.52;;;29.87;28.62
76660;BME280;65579;45.534;6.212;2023-08-21T09:09:08;98751.90;;;30.05;29.40
76660;BME280;65579;45.534;6.212;2023-08-21T09:11:33;98748.34;;;29.51;30.34
76660;BME280;65579;45.534;6.212;2023-08-21T09:13:58;98747.13;;;29.52;29.83
76660;BME280;65579;45.534;6.212;2023-08-21T09:16:24;98746.48;;;30.35;28.95
76660;BME280;65579;45.534;6.212;2023-08-21T09:18:49;98744.34;;;29.96;29.36
76660;BME280;65579;45.534;6.212;2023-08-21T09:21:17;98742.35;;;31.11;27.30
76660;BME280;65579;45.534;6.212;2023-08-21T09:23:39;98740.37;;;30.52;27.55
76660;BME280;65579;45.534;6.212;2023-08-21T09:26:04;98733.76;;;30.21;27.17
76660;BME280;65579;45.534;6.212;2023-08-21T09:28:31;98731.82;;;30.20;27.18
76660;BME280;65579;45.534;6.212;2023-08-21T09:30:55;98726.29;;;30.97;27.18
76660;BME280;65579;45.534;6.212;2023-08-21T09:33:22;98722.39;;;31.22;26.63
76660;BME280;65579;45.534;6.212;2023-08-21T09:35:47;98718.92;;;31.06;27.30
76660;BME280;65579;45.534;6.212;2023-08-21T09:38:12;98719.45;;;30.99;26.73
76660;BME280;65579;45.534;6.212;2023-08-21T09:40:40;98717.58;;;30.67;27.45
76660;BME280;65579;45.534;6.212;2023-08-21T09:43:03;98714.89;;;30.85;27.09
76660;BME280;65579;45.534;6.212;2023-08-21T09:45:28;98715.87;;;31.15;26.85
76660;BME280;65579;45.534;6.212;2023-08-21T09:47:53;98711.87;;;30.17;28.50
76660;BME280;65579;45.534;6.212;2023-08-21T09:50:21;98709.40;;;29.94;28.87
76660;BME280;65579;45.534;6.212;2023-08-21T09:52:45;98709.80;;;30.70;28.11
76660;BME280;65579;45.534;6.212;2023-08-21T09:55:09;98704.17;;;30.86;27.74
76660;BME280;65579;45.534;6.212;2023-08-21T09:57:35;98698.11;;;31.44;26.72
76660;BME280;65579;45.534;6.212;2023-08-21T10:00:01;98694.63;;;32.16;26.50
76660;BME280;65579;45.534;6.212;2023-08-21T10:02:26;98690.45;;;31.63;27.44
76660;BME280;65579;45.534;6.212;2023-08-21T10:04:52;98688.89;;;31.90;26.07
76660;BME280;65579;45.534;6.212;2023-08-21T10:07:17;98683.43;;;31.73;26.02
76660;BME280;65579;45.534;6.212;2023-08-21T10:09:43;98684.12;;;32.14;25.61
76660;BME280;65579;45.534;6.212;2023-08-21T10:12:09;98682.08;;;32.07;25.85
76660;BME280;65579;45.534;6.212;2023-08-21T10:14:33;98680.29;;;32.05;26.14
76660;BME280;65579;45.534;6.212;2023-08-21T10:16:59;98680.21;;;31.67;25.77
76660;BME280;65579;45.534;6.212;2023-08-21T10:19:23;98672.49;;;31.63;26.16
76660;BME280;65579;45.534;6.212;2023-08-21T10:21:49;98670.53;;;32.35;24.92
76660;BME280;65579;45.534;6.212;2023-08-21T10:24:27;98667.85;;;32.84;24.41
76660;BME280;65579;45.534;6.212;2023-08-21T10:26:39;98666.75;;;32.89;24.68
76660;BME280;65579;45.534;6.212;2023-08-21T10:29:04;98663.72;;;33.74;24.26
76660;BME280;65579;45.534;6.212;2023-08-21T10:31:32;98662.51;;;33.37;24.06
76660;BME280;65579;45.534;6.212;2023-08-21T10:33:56;98659.54;;;33.45;23.83
76660;BME280;65579;45.534;6.212;2023-08-21T10:38:58;98652.92;;;33.52;24.32
76660;BME280;65579;45.534;6.212;2023-08-21T10:41:12;98649.72;;;34.31;23.09
76660;BME280;65579;45.534;6.212;2023-08-21T10:43:38;98646.90;;;34.21;23.34
76660;BME280;65579;45.534;6.212;2023-08-21T10:46:03;98641.39;;;33.95;22.06
76660;BME280;65579;45.534;6.212;2023-08-21T10:48:28;98637.43;;;33.03;23.85
76660;BME280;65579;45.534;6.212;2023-08-21T10:50:54;98635.58;;;32.73;24.11
76660;BME280;65579;45.534;6.212;2023-08-21T10:53:19;98634.90;;;33.46;23.20
76660;BME280;65579;45.534;6.212;2023-08-21T10:55:52;98632.68;;;34.00;23.13
76660;BME280;65579;45.534;6.212;2023-08-21T10:58:10;98632.08;;;33.78;22.31
76660;BME280;65579;45.534;6.212;2023-08-21T11:00:35;98630.90;;;34.71;21.60
76660;BME280;65579;45.534;6.212;2023-08-21T11:03:01;98630.88;;;34.34;21.90
76660;BME280;65579;45.534;6.212;2023-08-21T11:05:26;98628.71;;;34.32;20.84
76660;BME280;65579;45.534;6.212;2023-08-21T11:07:51;98625.85;;;34.29;20.84
76660;BME280;65579;45.534;6.212;2023-08-21T11:10:21;98624.70;;;34.43;21.50
76660;BME280;65579;45.534;6.212;2023-08-21T11:12:50;98622.32;;;34.90;21.30
76660;BME280;65579;45.534;6.212;2023-08-21T11:15:15;98619.05;;;35.33;20.46
76660;BME280;65579;45.534;6.212;2023-08-21T11:17:33;98616.73;;;33.73;21.88
76660;BME280;65579;45.534;6.212;2023-08-21T11:20:01;98614.16;;;34.20;22.05
76660;BME280;65579;45.534;6.212;2023-08-21T11:22:29;98611.86;;;34.57;21.38
76660;BME280;65579;45.534;6.212;2023-08-21T11:24:49;98611.42;;;34.32;21.68
76660;BME280;65579;45.534;6.212;2023-08-21T11:27:16;98608.54;;;34.78;20.57
76660;BME280;65579;45.534;6.212;2023-08-21T11:29:41;98603.57;;;34.86;20.33
76660;BME280;65579;45.534;6.212;2023-08-21T11:32:12;98601.28;;;33.97;21.53
76660;BME280;65579;45.534;6.212;2023-08-21T11:34:32;98600.40;;;35.05;20.99
76660;BME280;65579;45.534;6.212;2023-08-21T11:36:56;98596.07;;;34.59;20.93
76660;BME280;65579;45.534;6.212;2023-08-21T11:39:22;98585.81;;;35.44;20.37
76660;BME280;65579;45.534;6.212;2023-08-21T11:41:54;98585.53;;;35.50;21.04
76660;BME280;65579;45.534;6.212;2023-08-21T11:44:13;98582.55;;;35.55;21.00
76660;BME280;65579;45.534;6.212;2023-08-21T11:46:39;98584.16;;;34.91;21.45
76660;BME280;65579;45.534;6.212;2023-08-21T11:49:05;98575.08;;;35.63;20.84
76660;BME280;65579;45.534;6.212;2023-08-21T11:51:29;98574.47;;;36.23;20.09
76660;BME280;65579;45.534;6.212;2023-08-21T11:53:55;98573.59;;;36.17;20.53
76660;BME280;65579;45.534;6.212;2023-08-21T11:56:20;98568.73;;;36.88;19.16
76660;BME280;65579;45.534;6.212;2023-08-21T11:58:46;98567.89;;;36.35;20.03
76660;BME280;65579;45.534;6.212;2023-08-21T12:01:16;98565.78;;;36.37;20.37
76660;BME280;65579;45.534;6.212;2023-08-21T12:03:38;98564.07;;;35.95;19.35
76660;BME280;65579;45.534;6.212;2023-08-21T12:06:05;98557.55;;;37.41;19.27
76660;BME280;65579;45.534;6.212;2023-08-21T12:08:27;98557.48;;;36.70;19.70
76660;BME280;65579;45.534;6.212;2023-08-21T12:10:53;98553.25;;;36.40;19.97
76660;BME280;65579;45.534;6.212;2023-08-21T12:13:18;98555.22;;;36.37;20.08
76660;BME280;65579;45.534;6.212;2023-08-21T12:15:44;98548.20;;;36.86;19.85
76660;BME280;65579;45.534;6.212;2023-08-21T12:18:09;98543.32;;;37.06;20.19
76660;BME280;65579;45.534;6.212;2023-08-21T12:20:35;98542.01;;;37.53;19.83
76660;BME280;65579;45.534;6.212;2023-08-21T12:23:00;98535.77;;;36.91;21.07
76660;BME280;65579;45.534;6.212;2023-08-21T12:25:26;98531.67;;;36.42;21.07
76660;BME280;65579;45.534;6.212;2023-08-21T12:27:51;98526.39;;;37.24;19.58
76660;BME280;65579;45.534;6.212;2023-08-21T12:30:17;98524.85;;;37.09;19.01
76660;BME280;65579;45.534;6.212;2023-08-21T12:32:42;98524.49;;;37.79;18.91
76660;BME280;65579;45.534;6.212;2023-08-21T12:35:08;98522.20;;;37.82;18.74
76660;BME280;65579;45.534;6.212;2023-08-21T12:37:33;98519.67;;;38.00;18.28
76660;BME280;65579;45.534;6.212;2023-08-21T12:39:58;98517.77;;;38.06;17.71
76660;BME280;65579;45.534;6.212;2023-08-21T12:42:23;98515.21;;;37.25;19.26
76660;BME280;65579;45.534;6.212;2023-08-21T12:44:48;98511.51;;;36.20;21.08
76660;BME280;65579;45.534;6.212;2023-08-21T12:47:14;98509.45;;;37.80;19.04
76660;BME280;65579;45.534;6.212;2023-08-21T12:49:39;98507.53;;;38.05;18.31
76660;BME280;65579;45.534;6.212;2023-08-21T12:52:05;98505.57;;;38.08;16.16